sensor_id;sensor_type;location;lat;lon;timestamp;temperature;humidity
24164;DHT22;12319;49.204;8.116;2022-08-05T00:00:45;29.20;43.30
24164;DHT22;12319;49.204;8.116;2022-08-05T00:03:10;29.10;44.00
24164;DHT22;12319;49.204;8.116;2022-08-05T00:05:36;29.10;44.30
24164;DHT22;12319;49.204;8.116;2022-08-05T00:08:01;29.00;44.50
24164;DHT22;12319;49.204;8.116;2022-08-05T00:10:27;29.00;44.20
24164;DHT22;12319;49.204;8.116;2022-08-05T00:12:52;28.90;44.50
24164;DHT22;12319;49.204;8.116;2022-08-05T00:15:18;28.90;44.70
24164;DHT22;12319;49.204;8.116;2022-08-05T00:17:44;28.70;44.60
24164;DHT22;12319;49.204;8.116;2022-08-05T00:20:09;28.80;44.60
24164;DHT22;12319;49.204;8.116;2022-08-05T00:22:35;28.80;44.80
24164;DHT22;12319;49.204;8.116;2022-08-05T00:25:01;28.80;44.80
24164;DHT22;12319;49.204;8.116;2022-08-05T00:27:26;28.80;45.00
24164;DHT22;12319;49.204;8.116;2022-08-05T00:29:55;28.80;44.90
24164;DHT22;12319;49.204;8.116;2022-08-05T00:32:20;28.80;45.20
24164;DHT22;12319;49.204;8.116;2022-08-05T00:34:46;28.80;45.50
24164;DHT22;12319;49.204;8.116;2022-08-05T00:37:12;28.60;45.30
24164;DHT22;12319;49.204;8.116;2022-08-05T00:39:37;28.70;46.00
24164;DHT22;12319;49.204;8.116;2022-08-05T00:42:04;28.70;45.40
24164;DHT22;12319;49.204;8.116;2022-08-05T00:44:30;28.70;45.40
24164;DHT22;12319;49.204;8.116;2022-08-05T00:46:55;28.60;45.30
24164;DHT22;12319;49.204;8.116;2022-08-05T00:49:21;28.60;45.70
24164;DHT22;12319;49.204;8.116;2022-08-05T00:51:46;28.60;45.80
24164;DHT22;12319;49.204;8.116;2022-08-05T00:54:12;28.60;45.70
24164;DHT22;12319;49.204;8.116;2022-08-05T00:56:38;28.60;45.90
24164;DHT22;12319;49.204;8.116;2022-08-05T00:59:04;28.60;46.40
24164;DHT22;12319;49.204;8.116;2022-08-05T01:01:30;28.50;46.00
24164;DHT22;12319;49.204;8.116;2022-08-05T01:03:56;28.40;46.00
24164;DHT22;12319;49.204;8.116;2022-08-05T01:06:21;28.50;46.10
24164;DHT22;12319;49.204;8.116;2022-08-05T01:08:47;28.40;46.00
24164;DHT22;12319;49.204;8.116;2022-08-05T01:11:21;28.50;46.30
24164;DHT22;12319;49.204;8.116;2022-08-05T01:21:58;28.40;46.00
24164;DHT22;12319;49.204;8.116;2022-08-05T01:24:50;28.40;46.00
24164;DHT22;12319;49.204;8.116;2022-08-05T01:27:53;28.40;46.30
24164;DHT22;12319;49.204;8.116;2022-08-05T01:30:25;28.40;46.60
24164;DHT22;12319;49.204;8.116;2022-08-05T01:32:55;28.40;46.10
24164;DHT22;12319;49.204;8.116;2022-08-05T01:35:26;28.40;46.30
24164;DHT22;12319;49.204;8.116;2022-08-05T01:37:54;28.30;46.40
24164;DHT22;12319;49.204;8.116;2022-08-05T01:40:23;28.40;46.40
24164;DHT22;12319;49.204;8.116;2022-08-05T01:42:50;28.30;46.80
24164;DHT22;12319;49.204;8.116;2022-08-05T01:45:18;28.30;46.60
24164;DHT22;12319;49.204;8.116;2022-08-05T01:47:45;28.20;46.50
24164;DHT22;12319;49.204;8.116;2022-08-05T01:50:19;28.20;46.60
24164;DHT22;12319;49.204;8.116;2022-08-05T01:52:47;28.20;46.90
24164;DHT22;12319;49.204;8.116;2022-08-05T01:55:15;28.10;46.70
24164;DHT22;12319;49.204;8.116;2022-08-05T01:57:44;28.00;46.80
24164;DHT22;12319;49.204;8.116;2022-08-05T02:00:11;28.10;46.90
24164;DHT22;12319;49.204;8.116;2022-08-05T02:02:49;28.10;46.90
24164;DHT22;12319;49.204;8.116;2022-08-05T02:05:17;28.00;47.30
24164;DHT22;12319;49.204;8.116;2022-08-05T02:07:44;28.10;47.00
24164;DHT22;12319;49.204;8.116;2022-08-05T02:10:10;27.90;47.00
24164;DHT22;12319;49.204;8.116;2022-08-05T02:12:43;28.00;47.10
24164;DHT22;12319;49.204;8.116;2022-08-05T02:15:24;28.00;47.30
24164;DHT22;12319;49.204;8.116;2022-08-05T02:18:01;28.00;47.70
24164;DHT22;12319;49.204;8.116;2022-08-05T02:20:32;28.00;47.30
24164;DHT22;12319;49.204;8.116;2022-08-05T02:23:02;28.00;47.50
24164;DHT22;12319;49.204;8.116;2022-08-05T02:25:38;28.00;47.50
24164;DHT22;12319;49.204;8.116;2022-08-05T02:28:06;28.00;47.80
24164;DHT22;12319;49.204;8.116;2022-08-05T02:30:38;28.00;47.50
24164;DHT22;12319;49.204;8.116;2022-08-05T02:33:07;28.00;47.80
24164;DHT22;12319;49.204;8.116;2022-08-05T02:35:35;28.00;47.60
24164;DHT22;12319;49.204;8.116;2022-08-05T02:38:02;28.00;47.50
24164;DHT22;12319;49.204;8.116;2022-08-05T02:40:29;28.00;47.60
24164;DHT22;12319;49.204;8.116;2022-08-05T02:42:55;27.90;47.70
24164;DHT22;12319;49.204;8.116;2022-08-05T02:45:22;27.90;47.60
24164;DHT22;12319;49.204;8.116;2022-08-05T02:47:51;27.90;47.70
24164;DHT22;12319;49.204;8.116;2022-08-05T02:50:20;27.90;47.80
24164;DHT22;12319;49.204;8.116;2022-08-05T02:52:47;27.90;47.80
24164;DHT22;12319;49.204;8.116;2022-08-05T02:55:13;27.90;47.90
24164;DHT22;12319;49.204;8.116;2022-08-05T02:57:40;27.80;48.40
24164;DHT22;12319;49.204;8.116;2022-08-05T03:00:07;27.80;47.90
24164;DHT22;12319;49.204;8.116;2022-08-05T03:02:37;27.80;48.10
24164;DHT22;12319;49.204;8.116;2022-08-05T03:05:04;27.70;48.10
24164;DHT22;12319;49.204;8.116;2022-08-05T03:07:32;27.70;48.40
24164;DHT22;12319;49.204;8.116;2022-08-05T03:09:59;27.70;48.60
24164;DHT22;12319;49.204;8.116;2022-08-05T03:12:38;27.70;48.90
24164;DHT22;12319;49.204;8.116;2022-08-05T03:15:05;27.70;49.80
24164;DHT22;12319;49.204;8.116;2022-08-05T03:17:31;27.70;49.50
24164;DHT22;12319;49.204;8.116;2022-08-05T03:19:57;27.70;49.70
24164;DHT22;12319;49.204;8.116;2022-08-05T03:22:23;27.60;49.60
24164;DHT22;12319;49.204;8.116;2022-08-05T03:24:49;27.60;49.70
24164;DHT22;12319;49.204;8.116;2022-08-05T03:27:16;27.60;49.60
24164;DHT22;12319;49.204;8.116;2022-08-05T03:29:42;27.50;50.20
24164;DHT22;12319;49.204;8.116;2022-08-05T03:32:08;27.50;49.70
24164;DHT22;12319;49.204;8.116;2022-08-05T03:34:34;27.50;49.70
24164;DHT22;12319;49.204;8.116;2022-08-05T03:37:01;27.40;49.80
24164;DHT22;12319;49.204;8.116;2022-08-05T03:39:27;27.40;50.00
24164;DHT22;12319;49.204;8.116;2022-08-05T03:41:54;27.30;50.10
24164;DHT22;12319;49.204;8.116;2022-08-05T03:44:20;27.30;50.30
24164;DHT22;12319;49.204;8.116;2022-08-05T03:46:45;27.20;50.40
24164;DHT22;12319;49.204;8.116;2022-08-05T03:49:11;27.20;50.50
24164;DHT22;12319;49.204;8.116;2022-08-05T03:51:41;27.10;50.70
24164;DHT22;12319;49.204;8.116;2022-08-05T03:56:43;27.00;51.00
24164;DHT22;12319;49.204;8.116;2022-08-05T03:59:13;26.80;50.80
24164;DHT22;12319;49.204;8.116;2022-08-05T04:01:45;26.90;50.80
24164;DHT22;12319;49.204;8.116;2022-08-05T04:04:13;26.90;50.70
24164;DHT22;12319;49.204;8.116;2022-08-05T04:06:39;26.80;50.70
24164;DHT22;12319;49.204;8.116;2022-08-05T04:09:05;26.80;50.70
24164;DHT22;12319;49.204;8.116;2022-08-05T04:11:32;26.70;50.70
24164;DHT22;12319;49.204;8.116;2022-08-05T04:13:59;26.70;50.70
24164;DHT22;12319;49.204;8.116;2022-08-05T04:16:25;26.60;50.80
24164;DHT22;12319;49.204;8.116;2022-08-05T04:18:51;26.60;50.70
24164;DHT22;12319;49.204;8.116;2022-08-05T04:21:17;26.50;50.80
24164;DHT22;12319;49.204;8.116;2022-08-05T04:23:42;26.60;50.90
24164;DHT22;12319;49.204;8.116;2022-08-05T04:26:08;26.60;51.00
24164;DHT22;12319;49.204;8.116;2022-08-05T04:28:34;26.50;51.00
24164;DHT22;12319;49.204;8.116;2022-08-05T04:31:00;26.50;51.20
24164;DHT22;12319;49.204;8.116;2022-08-05T04:33:25;26.40;51.20
24164;DHT22;12319;49.204;8.116;2022-08-05T04:35:51;26.40;51.30
24164;DHT22;12319;49.204;8.116;2022-08-05T04:38:17;26.50;51.50
24164;DHT22;12319;49.204;8.116;2022-08-05T04:40:43;26.30;51.40
24164;DHT22;12319;49.204;8.116;2022-08-05T04:43:08;26.40;51.50
24164;DHT22;12319;49.204;8.116;2022-08-05T04:45:34;26.30;51.70
24164;DHT22;12319;49.204;8.116;2022-08-05T04:48:08;26.30;51.60
24164;DHT22;12319;49.204;8.116;2022-08-05T04:50:40;26.20;52.00
24164;DHT22;12319;49.204;8.116;2022-08-05T04:53:07;26.20;51.80
24164;DHT22;12319;49.204;8.116;2022-08-05T04:55:37;26.30;51.80
24164;DHT22;12319;49.204;8.116;2022-08-05T04:58:04;26.30;51.90
24164;DHT22;12319;49.204;8.116;2022-08-05T05:00:31;26.30;51.80
24164;DHT22;12319;49.204;8.116;2022-08-05T05:02:56;26.40;51.80
24164;DHT22;12319;49.204;8.116;2022-08-05T05:05:22;26.40;51.70
24164;DHT22;12319;49.204;8.116;2022-08-05T05:07:47;26.50;51.70
24164;DHT22;12319;49.204;8.116;2022-08-05T05:10:13;26.60;51.60
24164;DHT22;12319;49.204;8.116;2022-08-05T05:12:38;26.70;51.30
24164;DHT22;12319;49.204;8.116;2022-08-05T05:15:04;26.90;51.10
24164;DHT22;12319;49.204;8.116;2022-08-05T05:17:41;27.10;51.10
24164;DHT22;12319;49.204;8.116;2022-08-05T05:20:10;27.20;50.80
24164;DHT22;12319;49.204;8.116;2022-08-05T05:22:36;27.30;50.40
24164;DHT22;12319;49.204;8.116;2022-08-05T05:25:03;27.40;50.30
24164;DHT22;12319;49.204;8.116;2022-08-05T05:27:31;27.40;50.20
24164;DHT22;12319;49.204;8.116;2022-08-05T05:29:57;27.40;50.10
24164;DHT22;12319;49.204;8.116;2022-08-05T05:32:22;27.30;50.00
24164;DHT22;12319;49.204;8.116;2022-08-05T05:34:48;27.30;50.10
24164;DHT22;12319;49.204;8.116;2022-08-05T05:37:13;27.30;50.10
24164;DHT22;12319;49.204;8.116;2022-08-05T05:39:39;27.20;50.00
24164;DHT22;12319;49.204;8.116;2022-08-05T05:42:05;27.20;50.10
24164;DHT22;12319;49.204;8.116;2022-08-05T05:44:31;27.20;49.90
24164;DHT22;12319;49.204;8.116;2022-08-05T05:46:57;27.20;49.80
24164;DHT22;12319;49.204;8.116;2022-08-05T05:49:22;27.20;49.70
24164;DHT22;12319;49.204;8.116;2022-08-05T05:51:48;27.20;49.70
24164;DHT22;12319;49.204;8.116;2022-08-05T05:54:13;27.30;49.60
24164;DHT22;12319;49.204;8.116;2022-08-05T05:56:39;27.30;49.60
24164;DHT22;12319;49.204;8.116;2022-08-05T05:59:06;27.40;49.60
24164;DHT22;12319;49.204;8.116;2022-08-05T06:01:36;27.50;49.40
24164;DHT22;12319;49.204;8.116;2022-08-05T06:04:02;27.60;49.20
24164;DHT22;12319;49.204;8.116;2022-08-05T06:06:28;27.70;49.00
24164;DHT22;12319;49.204;8.116;2022-08-05T06:08:53;27.90;48.90
24164;DHT22;12319;49.204;8.116;2022-08-05T06:11:19;28.00;48.80
24164;DHT22;12319;49.204;8.116;2022-08-05T06:13:44;28.20;48.50
24164;DHT22;12319;49.204;8.116;2022-08-05T06:16:10;28.40;48.60
24164;DHT22;12319;49.204;8.116;2022-08-05T06:18:36;28.60;48.50
24164;DHT22;12319;49.204;8.116;2022-08-05T06:21:02;28.90;48.40
24164;DHT22;12319;49.204;8.116;2022-08-05T06:23:27;29.30;48.40
24164;DHT22;12319;49.204;8.116;2022-08-05T06:25:53;30.00;48.90
24164;DHT22;12319;49.204;8.116;2022-08-05T06:28:18;31.90;47.50
24164;DHT22;12319;49.204;8.116;2022-08-05T06:30:44;33.80;44.50
24164;DHT22;12319;49.204;8.116;2022-08-05T06:33:09;35.70;42.90
24164;DHT22;12319;49.204;8.116;2022-08-05T06:35:35;37.40;40.70
24164;DHT22;12319;49.204;8.116;2022-08-05T06:38:00;38.70;39.60
24164;DHT22;12319;49.204;8.116;2022-08-05T06:40:26;39.80;38.90
24164;DHT22;12319;49.204;8.116;2022-08-05T06:42:52;41.00;37.90
24164;DHT22;12319;49.204;8.116;2022-08-05T06:45:17;42.10;36.90
24164;DHT22;12319;49.204;8.116;2022-08-05T06:47:43;43.10;35.70
24164;DHT22;12319;49.204;8.116;2022-08-05T06:50:08;43.90;34.40
24164;DHT22;12319;49.204;8.116;2022-08-05T06:52:34;44.40;32.50
24164;DHT22;12319;49.204;8.116;2022-08-05T06:54:59;43.90;32.60
24164;DHT22;12319;49.204;8.116;2022-08-05T06:57:25;43.40;32.60
24164;DHT22;12319;49.204;8.116;2022-08-05T06:59:50;42.50;31.50
24164;DHT22;12319;49.204;8.116;2022-08-05T07:02:16;42.60;32.70
24164;DHT22;12319;49.204;8.116;2022-08-05T07:04:41;42.90;32.80
24164;DHT22;12319;49.204;8.116;2022-08-05T07:07:07;43.00;32.30
24164;DHT22;12319;49.204;8.116;2022-08-05T07:09:33;43.00;32.00
24164;DHT22;12319;49.204;8.116;2022-08-05T07:11:58;42.00;31.40
24164;DHT22;12319;49.204;8.116;2022-08-05T07:14:24;40.70;32.00
24164;DHT22;12319;49.204;8.116;2022-08-05T07:17:08;39.20;32.30
24164;DHT22;12319;49.204;8.116;2022-08-05T07:19:34;37.70;33.30
24164;DHT22;12319;49.204;8.116;2022-08-05T07:21:59;36.70;34.20
24164;DHT22;12319;49.204;8.116;2022-08-05T07:24:25;35.80;34.90
24164;DHT22;12319;49.204;8.116;2022-08-05T07:26:51;35.00;35.60
24164;DHT22;12319;49.204;8.116;2022-08-05T07:29:16;34.30;36.10
24164;DHT22;12319;49.204;8.116;2022-08-05T07:31:42;33.80;36.90
24164;DHT22;12319;49.204;8.116;2022-08-05T07:34:08;33.00;37.40
24164;DHT22;12319;49.204;8.116;2022-08-05T07:36:33;32.50;38.00
24164;DHT22;12319;49.204;8.116;2022-08-05T07:39:00;32.00;38.40
24164;DHT22;12319;49.204;8.116;2022-08-05T07:41:27;31.60;39.00
24164;DHT22;12319;49.204;8.116;2022-08-05T07:43:53;31.20;39.50
24164;DHT22;12319;49.204;8.116;2022-08-05T07:46:19;30.90;40.30
24164;DHT22;12319;49.204;8.116;2022-08-05T07:48:45;30.70;40.70
24164;DHT22;12319;49.204;8.116;2022-08-05T07:51:10;30.50;40.80
24164;DHT22;12319;49.204;8.116;2022-08-05T07:53:36;30.20;41.20
24164;DHT22;12319;49.204;8.116;2022-08-05T07:56:03;29.90;41.50
24164;DHT22;12319;49.204;8.116;2022-08-05T07:58:28;29.70;42.30
24164;DHT22;12319;49.204;8.116;2022-08-05T08:00:54;29.40;42.20
24164;DHT22;12319;49.204;8.116;2022-08-05T08:03:20;29.30;42.80
24164;DHT22;12319;49.204;8.116;2022-08-05T08:05:45;29.10;42.80
24164;DHT22;12319;49.204;8.116;2022-08-05T08:08:12;29.00;43.00
24164;DHT22;12319;49.204;8.116;2022-08-05T08:10:38;29.00;43.20
24164;DHT22;12319;49.204;8.116;2022-08-05T08:13:04;28.90;43.40
24164;DHT22;12319;49.204;8.116;2022-08-05T08:15:30;28.80;43.60
24164;DHT22;12319;49.204;8.116;2022-08-05T08:17:56;28.80;44.40
24164;DHT22;12319;49.204;8.116;2022-08-05T08:20:22;28.70;44.80
24164;DHT22;12319;49.204;8.116;2022-08-05T08:22:56;28.70;45.30
24164;DHT22;12319;49.204;8.116;2022-08-05T08:25:24;29.00;45.70
24164;DHT22;12319;49.204;8.116;2022-08-05T08:27:50;29.40;46.00
24164;DHT22;12319;49.204;8.116;2022-08-05T08:30:15;29.60;45.70
24164;DHT22;12319;49.204;8.116;2022-08-05T08:32:41;29.70;45.90
24164;DHT22;12319;49.204;8.116;2022-08-05T08:35:08;30.00;45.70
24164;DHT22;12319;49.204;8.116;2022-08-05T08:37:33;30.30;45.30
24164;DHT22;12319;49.204;8.116;2022-08-05T08:39:59;30.40;44.80
24164;DHT22;12319;49.204;8.116;2022-08-05T08:42:25;30.70;45.00
24164;DHT22;12319;49.204;8.116;2022-08-05T08:44:53;31.20;45.00
24164;DHT22;12319;49.204;8.116;2022-08-05T08:47:22;31.50;44.40
24164;DHT22;12319;49.204;8.116;2022-08-05T08:49:51;31.50;44.20
24164;DHT22;12319;49.204;8.116;2022-08-05T08:52:23;31.50;44.50
24164;DHT22;12319;49.204;8.116;2022-08-05T08:54:52;31.30;44.20
24164;DHT22;12319;49.204;8.116;2022-08-05T08:57:18;31.00;44.10
24164;DHT22;12319;49.204;8.116;2022-08-05T08:59:43;30.70;44.00
24164;DHT22;12319;49.204;8.116;2022-08-05T09:02:10;30.50;44.10
24164;DHT22;12319;49.204;8.116;2022-08-05T09:04:36;30.50;44.50
24164;DHT22;12319;49.204;8.116;2022-08-05T09:07:07;30.40;44.50
24164;DHT22;12319;49.204;8.116;2022-08-05T09:09:36;30.50;44.60
24164;DHT22;12319;49.204;8.116;2022-08-05T09:12:03;30.60;44.60
24164;DHT22;12319;49.204;8.116;2022-08-05T09:14:31;30.70;44.40
24164;DHT22;12319;49.204;8.116;2022-08-05T09:17:03;30.80;44.30
24164;DHT22;12319;49.204;8.116;2022-08-05T09:19:28;31.00;44.40
24164;DHT22;12319;49.204;8.116;2022-08-05T09:21:54;31.20;44.20
24164;DHT22;12319;49.204;8.116;2022-08-05T09:24:20;31.40;44.00
24164;DHT22;12319;49.204;8.116;2022-08-05T09:26:49;31.50;43.90
24164;DHT22;12319;49.204;8.116;2022-08-05T09:29:15;31.70;43.70
24164;DHT22;12319;49.204;8.116;2022-08-05T09:31:41;31.80;43.50
24164;DHT22;12319;49.204;8.116;2022-08-05T09:34:10;31.80;43.20
24164;DHT22;12319;49.204;8.116;2022-08-05T09:36:47;31.80;43.10
24164;DHT22;12319;49.204;8.116;2022-08-05T09:39:15;32.00;43.10
24164;DHT22;12319;49.204;8.116;2022-08-05T09:42:03;32.20;43.00
24164;DHT22;12319;49.204;8.116;2022-08-05T09:44:40;32.40;42.70
24164;DHT22;12319;49.204;8.116;2022-08-05T09:49:33;32.80;42.50
24164;DHT22;12319;49.204;8.116;2022-08-05T09:52:36;32.80;41.90
24164;DHT22;12319;49.204;8.116;2022-08-05T09:57:37;33.00;41.70
24164;DHT22;12319;49.204;8.116;2022-08-05T10:00:13;33.10;41.40
24164;DHT22;12319;49.204;8.116;2022-08-05T10:02:42;33.10;41.40
24164;DHT22;12319;49.204;8.116;2022-08-05T10:05:13;33.20;41.50
24164;DHT22;12319;49.204;8.116;2022-08-05T10:07:48;33.30;41.60
24164;DHT22;12319;49.204;8.116;2022-08-05T10:10:14;33.40;41.60
24164;DHT22;12319;49.204;8.116;2022-08-05T10:12:50;33.50;41.50
24164;DHT22;12319;49.204;8.116;2022-08-05T10:15:23;33.60;41.40
24164;DHT22;12319;49.204;8.116;2022-08-05T10:20:45;33.70;41.40
24164;DHT22;12319;49.204;8.116;2022-08-05T10:23:23;33.80;41.50
24164;DHT22;12319;49.204;8.116;2022-08-05T10:25:49;33.80;41.40
24164;DHT22;12319;49.204;8.116;2022-08-05T10:28:16;33.80;41.20
24164;DHT22;12319;49.204;8.116;2022-08-05T10:30:42;33.80;41.30
24164;DHT22;12319;49.204;8.116;2022-08-05T10:33:08;33.80;41.00
24164;DHT22;12319;49.204;8.116;2022-08-05T10:35:34;33.80;40.90
24164;DHT22;12319;49.204;8.116;2022-08-05T10:38:00;33.70;40.70
24164;DHT22;12319;49.204;8.116;2022-08-05T10:40:37;33.70;40.60
24164;DHT22;12319;49.204;8.116;2022-08-05T10:45:58;33.70;40.40
24164;DHT22;12319;49.204;8.116;2022-08-05T10:49:17;33.60;40.00
24164;DHT22;12319;49.204;8.116;2022-08-05T10:51:24;33.70;39.90
24164;DHT22;12319;49.204;8.116;2022-08-05T10:56:27;33.90;40.20
24164;DHT22;12319;49.204;8.116;2022-08-05T11:06:32;33.60;40.00
24164;DHT22;12319;49.204;8.116;2022-08-05T11:09:19;33.60;40.10
24164;DHT22;12319;49.204;8.116;2022-08-05T11:11:46;33.70;40.10
24164;DHT22;12319;49.204;8.116;2022-08-05T11:14:24;33.70;40.30
24164;DHT22;12319;49.204;8.116;2022-08-05T11:17:31;33.80;40.20
24164;DHT22;12319;49.204;8.116;2022-08-05T11:19:59;33.80;40.30
24164;DHT22;12319;49.204;8.116;2022-08-05T11:22:47;33.90;40.00
24164;DHT22;12319;49.204;8.116;2022-08-05T11:33:36;34.00;40.00
24164;DHT22;12319;49.204;8.116;2022-08-05T11:36:09;34.10;40.10
24164;DHT22;12319;49.204;8.116;2022-08-05T11:41:05;34.30;40.00
24164;DHT22;12319;49.204;8.116;2022-08-05T11:43:31;34.20;40.00
24164;DHT22;12319;49.204;8.116;2022-08-05T11:45:57;34.20;40.00
24164;DHT22;12319;49.204;8.116;2022-08-05T11:48:24;34.20;40.20
24164;DHT22;12319;49.204;8.116;2022-08-05T11:50:51;34.10;40.10
24164;DHT22;12319;49.204;8.116;2022-08-05T11:53:17;34.20;40.20
24164;DHT22;12319;49.204;8.116;2022-08-05T11:55:57;34.00;40.20
24164;DHT22;12319;49.204;8.116;2022-08-05T11:58:34;34.10;40.40
24164;DHT22;12319;49.204;8.116;2022-08-05T12:01:06;34.20;40.40
24164;DHT22;12319;49.204;8.116;2022-08-05T12:03:53;34.10;40.40
24164;DHT22;12319;49.204;8.116;2022-08-05T12:06:23;34.10;40.40
24164;DHT22;12319;49.204;8.116;2022-08-05T12:08:55;34.20;40.40
24164;DHT22;12319;49.204;8.116;2022-08-05T12:11:29;34.30;40.40
24164;DHT22;12319;49.204;8.116;2022-08-05T12:13:59;34.30;40.20
24164;DHT22;12319;49.204;8.116;2022-08-05T12:16:28;34.50;40.30
24164;DHT22;12319;49.204;8.116;2022-08-05T12:18:55;34.50;40.20
24164;DHT22;12319;49.204;8.116;2022-08-05T12:21:24;34.70;40.20
24164;DHT22;12319;49.204;8.116;2022-08-05T12:24:03;34.90;40.10
24164;DHT22;12319;49.204;8.116;2022-08-05T12:26:42;34.80;40.00
24164;DHT22;12319;49.204;8.116;2022-08-05T12:29:14;34.80;39.90
24164;DHT22;12319;49.204;8.116;2022-08-05T12:31:46;34.90;40.00
24164;DHT22;12319;49.204;8.116;2022-08-05T12:34:12;35.00;40.10
24164;DHT22;12319;49.204;8.116;2022-08-05T12:36:38;35.00;39.90
24164;DHT22;12319;49.204;8.116;2022-08-05T12:39:04;35.10;39.90
24164;DHT22;12319;49.204;8.116;2022-08-05T12:41:35;35.20;40.00
24164;DHT22;12319;49.204;8.116;2022-08-05T12:44:12;35.20;39.80
24164;DHT22;12319;49.204;8.116;2022-08-05T12:46:39;35.10;39.30
24164;DHT22;12319;49.204;8.116;2022-08-05T12:49:10;35.10;39.70
24164;DHT22;12319;49.204;8.116;2022-08-05T12:51:56;34.80;39.70
24164;DHT22;12319;49.204;8.116;2022-08-05T12:54:30;34.60;39.90
24164;DHT22;12319;49.204;8.116;2022-08-05T12:56:57;34.40;40.10
24164;DHT22;12319;49.204;8.116;2022-08-05T12:59:26;34.40;40.20
24164;DHT22;12319;49.204;8.116;2022-08-05T13:02:06;34.40;40.30
24164;DHT22;12319;49.204;8.116;2022-08-05T13:04:35;34.30;40.40
24164;DHT22;12319;49.204;8.116;2022-08-05T13:07:03;34.40;40.30
24164;DHT22;12319;49.204;8.116;2022-08-05T13:09:29;34.50;40.40
24164;DHT22;12319;49.204;8.116;2022-08-05T13:12:06;34.60;40.30
24164;DHT22;12319;49.204;8.116;2022-08-05T13:14:38;34.70;40.40
24164;DHT22;12319;49.204;8.116;2022-08-05T13:17:18;34.70;40.30
24164;DHT22;12319;49.204;8.116;2022-08-05T13:22:26;34.90;40.50
24164;DHT22;12319;49.204;8.116;2022-08-05T13:24:52;35.10;40.20
24164;DHT22;12319;49.204;8.116;2022-08-05T13:30:00;35.50;39.60
24164;DHT22;12319;49.204;8.116;2022-08-05T13:32:26;35.70;39.70
24164;DHT22;12319;49.204;8.116;2022-08-05T13:34:52;35.80;39.70
24164;DHT22;12319;49.204;8.116;2022-08-05T13:37:19;36.00;39.70
24164;DHT22;12319;49.204;8.116;2022-08-05T13:39:49;36.10;39.50
24164;DHT22;12319;49.204;8.116;2022-08-05T13:42:15;36.30;39.20
24164;DHT22;12319;49.204;8.116;2022-08-05T13:44:42;36.40;39.00
24164;DHT22;12319;49.204;8.116;2022-08-05T13:47:07;36.30;38.80
24164;DHT22;12319;49.204;8.116;2022-08-05T13:49:33;36.30;38.70
24164;DHT22;12319;49.204;8.116;2022-08-05T13:52:09;36.20;38.70
24164;DHT22;12319;49.204;8.116;2022-08-05T13:54:35;35.80;38.50
24164;DHT22;12319;49.204;8.116;2022-08-05T13:57:01;35.40;38.80
24164;DHT22;12319;49.204;8.116;2022-08-05T13:59:26;35.20;39.00
24164;DHT22;12319;49.204;8.116;2022-08-05T14:01:53;35.00;39.20
24164;DHT22;12319;49.204;8.116;2022-08-05T14:04:19;34.80;39.10
24164;DHT22;12319;49.204;8.116;2022-08-05T14:07:03;35.00;39.20
24164;DHT22;12319;49.204;8.116;2022-08-05T14:09:28;35.20;40.00
24164;DHT22;12319;49.204;8.116;2022-08-05T14:11:54;35.40;39.00
24164;DHT22;12319;49.204;8.116;2022-08-05T14:14:19;35.60;38.70
24164;DHT22;12319;49.204;8.116;2022-08-05T14:16:45;35.50;38.40
24164;DHT22;12319;49.204;8.116;2022-08-05T14:19:10;35.50;38.60
24164;DHT22;12319;49.204;8.116;2022-08-05T14:21:36;35.40;38.60
24164;DHT22;12319;49.204;8.116;2022-08-05T14:24:01;35.40;38.60
24164;DHT22;12319;49.204;8.116;2022-08-05T14:26:27;35.30;38.40
24164;DHT22;12319;49.204;8.116;2022-08-05T14:28:53;35.30;38.60
24164;DHT22;12319;49.204;8.116;2022-08-05T14:31:18;35.30;38.60
24164;DHT22;12319;49.204;8.116;2022-08-05T14:33:44;35.30;38.50
24164;DHT22;12319;49.204;8.116;2022-08-05T14:36:10;35.30;38.40
24164;DHT22;12319;49.204;8.116;2022-08-05T14:38:35;35.10;38.40
24164;DHT22;12319;49.204;8.116;2022-08-05T14:41:03;34.90;38.60
24164;DHT22;12319;49.204;8.116;2022-08-05T14:43:28;34.60;38.90
24164;DHT22;12319;49.204;8.116;2022-08-05T14:45:54;34.60;38.90
24164;DHT22;12319;49.204;8.116;2022-08-05T14:48:19;34.50;38.80
24164;DHT22;12319;49.204;8.116;2022-08-05T14:50:45;34.50;38.80
24164;DHT22;12319;49.204;8.116;2022-08-05T14:53:10;34.30;38.70
24164;DHT22;12319;49.204;8.116;2022-08-05T14:55:37;34.20;38.90
24164;DHT22;12319;49.204;8.116;2022-08-05T14:58:02;34.10;39.10
24164;DHT22;12319;49.204;8.116;2022-08-05T15:00:28;33.90;39.30
24164;DHT22;12319;49.204;8.116;2022-08-05T15:02:53;33.80;39.50
24164;DHT22;12319;49.204;8.116;2022-08-05T15:05:19;33.70;39.80
24164;DHT22;12319;49.204;8.116;2022-08-05T15:07:44;33.40;39.80
24164;DHT22;12319;49.204;8.116;2022-08-05T15:10:10;33.40;40.10
24164;DHT22;12319;49.204;8.116;2022-08-05T15:12:36;33.10;40.10
24164;DHT22;12319;49.204;8.116;2022-08-05T15:15:01;33.00;40.40
24164;DHT22;12319;49.204;8.116;2022-08-05T15:17:27;32.90;40.40
24164;DHT22;12319;49.204;8.116;2022-08-05T15:19:52;32.80;40.40
24164;DHT22;12319;49.204;8.116;2022-08-05T15:22:18;32.90;40.70
24164;DHT22;12319;49.204;8.116;2022-08-05T15:24:43;32.50;40.60
24164;DHT22;12319;49.204;8.116;2022-08-05T15:27:10;32.50;41.00
24164;DHT22;12319;49.204;8.116;2022-08-05T15:29:36;32.40;41.10
24164;DHT22;12319;49.204;8.116;2022-08-05T15:32:01;32.20;41.10
24164;DHT22;12319;49.204;8.116;2022-08-05T15:34:27;32.10;41.50
24164;DHT22;12319;49.204;8.116;2022-08-05T15:36:52;32.00;41.50
24164;DHT22;12319;49.204;8.116;2022-08-05T15:39:18;31.80;41.70
24164;DHT22;12319;49.204;8.116;2022-08-05T15:41:43;31.70;42.00
24164;DHT22;12319;49.204;8.116;2022-08-05T15:44:09;31.70;42.20
24164;DHT22;12319;49.204;8.116;2022-08-05T15:46:34;31.50;42.10
24164;DHT22;12319;49.204;8.116;2022-08-05T15:49:00;31.40;42.20
24164;DHT22;12319;49.204;8.116;2022-08-05T15:51:26;31.30;42.40
24164;DHT22;12319;49.204;8.116;2022-08-05T15:53:52;31.20;42.60
24164;DHT22;12319;49.204;8.116;2022-08-05T15:56:19;31.10;42.60
24164;DHT22;12319;49.204;8.116;2022-08-05T15:58:45;31.10;42.60
24164;DHT22;12319;49.204;8.116;2022-08-05T16:01:11;30.90;42.80
24164;DHT22;12319;49.204;8.116;2022-08-05T16:03:42;30.80;43.60
24164;DHT22;12319;49.204;8.116;2022-08-05T16:06:09;30.60;44.30
24164;DHT22;12319;49.204;8.116;2022-08-05T16:08:35;30.40;44.50
24164;DHT22;12319;49.204;8.116;2022-08-05T16:11:00;30.20;44.90
24164;DHT22;12319;49.204;8.116;2022-08-05T16:13:27;30.00;45.10
24164;DHT22;12319;49.204;8.116;2022-08-05T16:15:52;29.80;45.60
24164;DHT22;12319;49.204;8.116;2022-08-05T16:18:18;29.60;46.00
24164;DHT22;12319;49.204;8.116;2022-08-05T16:20:43;29.40;46.20
24164;DHT22;12319;49.204;8.116;2022-08-05T16:23:09;29.30;46.60